Terminal Aerodrome Forecast
Issued by NWS Detroit/Pontiac, MI

Home | Current Version | Previous Version | Text Only | Print | Product List | Glossary On
Versions: 1 2 3 4 5 6 7 8 9 10 11 12 13 14 15
000
FTUS43 KDTX 111700
TAFFNT
TAF
KFNT 111720Z 1118/1218 19006KT P6SM FEW045 SCT200
     FM120000 18004KT P6SM SCT200
     FM121400 19008KT P6SM SCT150=

USA.gov is the U.S. government's official web portal to all federal, state and local government web resources and services.